Overview Statistics Trail Chart Weather Telemetry Raw packets
 

This is the latest recevied weather packets stored in our database for station/object SP6YY-15. If no packets are shown the sender has not sent any weather packets the latest 10 day(s).

<< 6 7 8 9 10 11 12 >>
Time Temp. Humidity Pressure Rain* Wind** Luminosity Snow
1777444850 26.67° C 15% 1014.9 hPa - - - -
1777444549 25° C 15% 1015 hPa - - - -
1777444250 22.22° C 16% 1014.6 hPa - - - -
1777443649 14.44° C 17% 1014.9 hPa - - - -
1777396589 39.44° C 7% 1009.7 hPa - - - -
1777396278 38.33° C 8% 1010.1 hPa - - - -
1777395978 35° C 8% 1009.1 hPa - - - -
1777395665 35° C 9% 1009.1 hPa - - - -
1777395365 35° C 8% 1009.2 hPa - - - -
1777395065 35.56° C 8% 1009.1 hPa - - - -
1777394765 35.56° C 8% 1009 hPa - - - -
1777394465 36.11° C 8% 1009.1 hPa - - - -
1777394165 36.11° C 8% 1009.1 hPa - - - -
1777393865 36.11° C 8% 1009 hPa - - - -
1777393565 36.67° C 8% 1009.1 hPa - - - -
1777392965 37.22° C 8% 1009 hPa - - - -
1777392665 37.22° C 8% 1009.1 hPa - - - -
1777392365 37.78° C 8% 1009.1 hPa - - - -
1777392065 37.78° C 7% 1009.1 hPa - - - -
1777391765 38.33° C 7% 1009.1 hPa - - - -
1777391465 38.89° C 7% 1009 hPa - - - -
1777391165 40° C 7% 1009 hPa - - - -
1777390864 41.11° C 7% 1009 hPa - - - -
1777390564 43.33° C 7% 1009.3 hPa - - - -
1777390264 48.33° C 6% 1009 hPa - - - -

* Rain since midnight (hover to see other rain measurements)
** Current wind speed in m/s (hover to see current wind gust speed)